Time;durP1;ratioP1;P1;durP2;ratioP2;P2;SDS_P1;SDS_P2;PMS_P1;PMS_P2;Temp;Humidity;BMP_temperature;BMP_pressure;BME280_temperature;BME280_humidity;BME280_pressure;Samples;Min_cycle;Max_cycle;Signal;HPM_P1;HPM_P2
2020/12/28 04:22:25;;;;;;;;;;;;;;;;;;;;;
2020/12/28 05:03:38;;;;;;;;;;;0.90;99.90;;;-0.99;75.87;92470.34;10092457;29;2384;-83
2020/12/28 05:08:57;;;;;;;;;;;1.90;99.90;;;-1.12;76.72;92471.81;10220348;28;2157;-82
2020/12/28 05:14:00;;;;;;;;;;;-0.10;99.90;;;-0.95;76.09;92438.94;10430657;28;2476;-82
2020/12/28 05:19:02;;;;;;;;;;;0.60;99.90;;;-1.01;75.48;92434.78;10426679;28;2497;-82
2020/12/28 05:47:42;;;;;;;;;;;1.20;99.90;;;-0.64;73.78;92434.78;10245044;29;2311;-83
2020/12/28 06:17:21;;;;;;;;;;;0.40;99.90;;;-0.59;74.25;92518.34;10577338;22;2044;-84
2020/12/28 06:46:37;;;;;;;;;;;2.20;99.90;;;-0.98;77.91;92468.47;10511985;28;1838;-85
2020/12/28 06:52:03;;;;;;;;;;;-0.10;99.90;;;-0.85;77.04;92444.06;10512707;28;2183;-84
2020/12/28 06:57:47;;;;;;;;;;;1.50;99.90;;;-0.66;75.41;92429.03;10517530;28;1762;-83
2020/12/28 07:03:03;;;;;;;;;;;0.60;99.90;;;-0.81;74.78;92408.16;10515512;28;2175;-84
2020/12/28 07:08:32;;;;;;;;;;;0.20;99.90;;;-0.71;74.79;92407.97;10505238;28;2017;-83
2020/12/28 07:14:07;;;;;;;;;;;1.00;99.90;;;-0.71;75.07;92418.53;10513253;28;1992;-83
2020/12/28 07:19:24;;;;;;;;;;;0.50;99.90;;;-0.68;75.37;92407.44;10520723;28;2421;-84
2020/12/28 07:24:35;;;;;;;;;;;0.30;99.90;;;-0.66;75.86;92428.25;10513975;28;2126;-83
2020/12/28 07:29:54;;;;;;;;;;;0.30;99.90;;;-0.46;75.15;92427.16;10538301;28;2103;-83
2020/12/28 07:34:58;;;;;;;;;;;1.40;99.90;;;-0.31;74.96;92427.72;10530765;28;1952;-82
2020/12/28 07:40:22;;;;;;;;;;;1.10;99.90;;;-0.16;71.29;92396.88;10506510;28;2017;-82
2020/12/28 07:45:58;;;;;;;;;;;0.70;99.90;;;-0.23;72.88;92397.25;10545495;28;2144;-84
2020/12/28 07:51:40;;;;;;;;;;;0.70;99.90;;;0.00;71.55;92390.28;10516436;28;1922;-82
2020/12/28 08:03:15;;;;;;;;;;;1.70;99.90;;;0.18;71.39;92359.56;10523567;28;1985;-84
2020/12/28 08:08:44;;;;;;;;;;;1.00;99.90;;;0.08;69.86;92357.91;10511526;28;2080;-84
2020/12/28 08:14:10;;;;;;;;;;;1.20;99.90;;;-0.11;70.50;92355.31;10531314;28;2069;-84
2020/12/28 08:19:27;;;;;;;;;;;0.90;99.90;;;-0.05;70.30;92338.31;10518160;28;2110;-83
2020/12/28 08:25:03;;;;;;;;;;;1.30;99.90;;;-0.16;69.82;92318.44;10502042;28;2161;-83
2020/12/28 08:30:14;;;;;;;;;;;0.80;99.90;;;-0.35;71.40;92310.59;10532020;28;2151;-84
2020/12/28 08:36:06;;;;;;;;;;;;;;;;;;;;;
2020/12/28 08:41:51;;;;;;;;;;;2.10;99.90;;;-0.10;69.08;92305.94;10359764;28;2042;-83
2020/12/28 08:47:08;;;;;;;;;;;2.30;99.90;;;-0.14;69.92;92321.56;10387900;28;2169;-84
2020/12/28 08:53:11;;;;;;;;;;;;;;;;;;;;;
2020/12/28 09:16:00;;;;;;;;;;;1.50;94.20;;;0.42;65.13;92325.81;10390665;28;2132;-83
2020/12/28 09:27:06;;;;;;;;;;;2.40;95.60;;;0.75;65.42;92323.03;10338641;28;2105;-83
2020/12/28 09:32:45;;;;;;;;;;;2.70;96.50;;;0.65;65.65;92321.41;10404591;28;2121;-83
2020/12/28 09:43:32;;;;;;;;;;;1.50;94.40;;;0.60;65.59;92331.28;10523772;28;1977;-84
2020/12/28 09:49:00;;;;;;;;;;;1.50;94.30;;;0.67;65.01;92307.88;10514777;28;2041;-82
2020/12/28 09:54:25;;;;;;;;;;;1.70;93.40;;;0.52;66.19;92322.97;10535605;28;2084;-84
2020/12/28 10:05:50;;;;;;;;;;;2.60;94.50;;;0.96;64.79;92305.66;10560592;28;1849;-85
2020/12/28 10:11:09;;;;;;;;;;;3.10;94.60;;;1.10;64.93;92286.31;10543943;28;2037;-85
2020/12/28 10:16:38;;;;;;;;;;;2.00;94.00;;;1.02;64.54;92282.53;10537777;28;1988;-85
2020/12/28 10:21:50;;;;;;;;;;;2.00;92.80;;;1.06;65.42;92280.84;10524816;28;1953;-85
2020/12/28 10:26:57;;;;;;;;;;;1.90;93.50;;;1.14;65.61;92264.22;10544466;28;2025;-86
2020/12/28 10:32:19;;;;;;;;;;;3.10;94.80;;;1.25;64.96;92257.63;10529575;28;1823;-86
2020/12/28 10:43:55;;;;;;;;;;;2.20;94.00;;;1.33;65.48;92250.81;10528383;28;1961;-86
2020/12/28 10:49:07;;;;;;;;;;;3.20;94.20;;;1.26;65.57;92239.88;10538527;28;2065;-86
2020/12/28 10:54:11;;;;;;;;;;;3.50;94.40;;;1.20;66.17;92231.28;10536954;28;1923;-83
2020/12/28 10:59:27;;;;;;;;;;;2.10;93.90;;;1.12;66.84;92225.94;10547162;28;1709;-84
2020/12/28 11:04:31;;;;;;;;;;;2.00;94.50;;;0.88;67.57;92213.03;10540427;28;1991;-81
2020/12/28 11:09:39;;;;;;;;;;;2.00;94.80;;;0.71;68.75;92195.19;10562271;28;1897;-86
2020/12/28 11:14:45;;;;;;;;;;;3.60;96.60;;;0.60;69.44;92196.50;10550145;28;1804;-85
2020/12/28 11:19:52;;;;;;;;;;;1.60;96.50;;;0.62;70.14;92207.53;10574404;28;1832;-83
2020/12/28 11:25:06;;;;;;;;;;;2.60;98.20;;;0.37;70.67;92204.38;10554047;28;1969;-84
2020/12/28 11:30:09;;;;;;;;;;;2.50;98.40;;;0.48;69.94;92197.00;10551376;28;2194;-83
2020/12/28 11:35:30;;;;;;;;;;;1.40;98.00;;;0.66;70.47;92206.66;10563866;28;1708;-84
2020/12/28 11:40:45;;;;;;;;;;;2.00;99.00;;;0.65;69.81;92201.66;10560267;28;3780;-85
2020/12/28 11:45:51;;;;;;;;;;;3.10;99.20;;;0.36;71.23;92191.47;10541015;28;1966;-82
2020/12/28 11:57:14;;;;;;;;;;;2.80;99.40;;;0.59;71.27;92189.66;10476099;28;2008;-86
2020/12/28 12:02:27;;;;;;;;;;;1.50;99.70;;;0.62;69.66;92184.53;10543347;28;1918;-84
2020/12/28 12:07:42;;;;;;;;;;;1.50;98.60;;;0.65;70.01;92183.16;10524338;28;1874;-85
2020/12/28 12:12:45;;;;;;;;;;;1.60;98.70;;;0.55;70.73;92173.59;10546550;28;1942;-84
2020/12/28 12:18:05;;;;;;;;;;;3.00;99.80;;;0.65;71.86;92167.31;10566541;28;1594;-84
2020/12/28 12:23:13;;;;;;;;;;;1.60;99.90;;;0.63;71.20;92153.59;10544475;28;1882;-86
2020/12/28 12:40:28;;;;;;;;;;;3.10;99.90;;;0.99;71.20;92193.97;10447356;28;1478;-87
2020/12/28 12:45:54;;;;;;;;;;;2.10;99.90;;;1.11;70.63;92195.28;10477287;28;1997;-88
2020/12/28 12:51:14;;;;;;;;;;;2.00;99.90;;;1.32;68.56;92186.53;10486518;28;1779;-87
2020/12/28 12:56:46;;;;;;;;;;;2.30;99.00;;;1.35;68.80;92191.25;10519189;28;1957;-86
2020/12/28 13:02:39;;;;;;;;;;;;;;;;;;;;;
2020/12/28 13:14:27;;;;;;;;;;;2.30;96.40;;;1.31;68.83;92234.47;10335738;28;2211;-86
2020/12/28 13:20:29;;;;;;;;;;;2.30;97.30;;;0.95;69.99;92251.19;10319476;28;2160;-87
2020/12/28 13:25:50;;;;;;;;;;;;;;;;;;;;;
2020/12/28 13:31:13;;;;;;;;;;;2.10;98.80;;;1.10;69.37;92265.16;10495928;28;1879;-86
2020/12/28 13:47:02;;;;;;;;;;;2.80;99.90;;;0.91;71.70;92271.38;10471695;28;1899;-86
2020/12/28 14:09:27;;;;;;;;;;;1.90;99.90;;;1.13;74.44;92297.06;10468579;28;1607;-87
2020/12/28 14:20:41;;;;;;;;;;;2.20;99.90;;;1.24;76.36;92300.28;10514745;28;1983;-85
2020/12/28 14:26:29;;;;;;;;;;;2.10;99.90;;;1.35;76.62;92309.53;10529840;28;1958;-84
2020/12/28 14:38:35;;;;;;;;;;;;;;;;;;;;;
2020/12/28 14:49:50;;;;;;;;;;;3.40;99.90;;;1.17;84.88;92327.13;10368309;28;1809;-86
2020/12/28 14:55:02;;;;;;;;;;;2.10;99.90;;;1.10;86.42;92326.00;10372174;28;1875;-84
2020/12/28 15:00:04;;;;;;;;;;;2.10;99.90;;;1.05;87.36;92335.59;10513572;28;1557;-87
2020/12/28 15:05:06;;;;;;;;;;;2.50;99.90;;;0.97;88.36;92338.19;10513828;28;1969;-87
2020/12/28 15:10:08;;;;;;;;;;;3.60;99.90;;;0.88;89.40;92346.00;10516700;28;1840;-86
2020/12/28 15:15:12;;;;;;;;;;;2.50;99.90;;;0.79;89.80;92353.88;10510771;28;1938;-84
2020/12/28 15:20:13;;;;;;;;;;;1.90;99.90;;;0.70;90.29;92365.41;10527970;28;1875;-86
2020/12/28 15:25:15;;;;;;;;;;;1.80;99.90;;;0.67;91.11;92387.16;10513962;28;1910;-86
2020/12/28 15:30:17;;;;;;;;;;;3.10;99.90;;;0.41;91.45;92398.22;10527862;28;1953;-85
2020/12/28 15:35:19;;;;;;;;;;;3.00;99.90;;;0.17;92.44;92403.69;10527156;28;2031;-86
2020/12/28 15:40:21;;;;;;;;;;;1.30;99.90;;;0.05;93.00;92418.44;10530468;28;2293;-82
2020/12/28 15:45:23;;;;;;;;;;;1.20;99.90;;;-0.02;93.37;92421.44;10537179;28;2013;-86
2020/12/28 15:50:25;;;;;;;;;;;1.00;99.90;;;-0.09;94.13;92423.66;10528057;28;2114;-85
2020/12/28 15:55:26;;;;;;;;;;;1.00;99.90;;;-0.12;94.44;92435.59;10523127;28;1946;-85
2020/12/28 16:00:28;;;;;;;;;;;0.90;99.90;;;-0.04;94.77;92437.56;10531436;28;1922;-83
2020/12/28 16:05:30;;;;;;;;;;;1.00;99.90;;;-0.04;95.14;92442.06;10522470;28;1960;-83
2020/12/28 16:10:32;;;;;;;;;;;1.00;99.90;;;0.01;95.07;92444.66;10533383;28;1739;-85
2020/12/28 16:15:33;;;;;;;;;;;1.00;99.90;;;0.07;95.22;92453.25;10539611;28;2271;-84
2020/12/28 16:20:35;;;;;;;;;;;1.10;99.90;;;0.14;94.85;92458.97;10543159;28;1937;-84
2020/12/28 16:25:37;;;;;;;;;;;1.10;99.90;;;0.13;94.99;92452.13;10537451;28;1872;-85
2020/12/28 16:30:39;;;;;;;;;;;2.00;99.90;;;0.18;95.12;92460.72;10526592;28;1981;-86
2020/12/28 16:35:41;;;;;;;;;;;1.50;99.90;;;0.28;95.57;92449.19;10508060;28;1925;-86
2020/12/28 16:40:43;;;;;;;;;;;1.20;99.90;;;0.32;95.36;92439.63;10486423;28;2027;-85
2020/12/28 16:45:45;;;;;;;;;;;1.30;99.90;;;0.33;95.35;92435.91;10507273;28;1855;-85
2020/12/28 16:50:47;;;;;;;;;;;1.40;99.90;;;0.38;95.46;92442.94;10510599;28;2045;-87
2020/12/28 16:55:49;;;;;;;;;;;2.20;99.90;;;0.41;95.51;92443.16;10522320;28;2048;-87
2020/12/28 17:00:51;;;;;;;;;;;1.40;99.90;;;0.44;95.16;92447.84;10511060;28;2022;-86
2020/12/28 17:05:53;;;;;;;;;;;1.50;99.90;;;0.46;95.25;92452.84;10534377;28;1926;-84
2020/12/28 17:10:55;;;;;;;;;;;1.40;99.90;;;0.51;95.33;92456.19;10531959;28;1895;-86
2020/12/28 17:15:56;;;;;;;;;;;1.90;99.90;;;0.52;95.17;92476.25;10555919;28;1949;-86
2020/12/28 17:20:58;;;;;;;;;;;1.60;99.90;;;0.54;94.99;92471.44;10560322;28;1985;-85
2020/12/28 17:26:00;;;;;;;;;;;2.20;99.90;;;0.57;95.07;92464.78;10530818;28;1995;-84
2020/12/28 17:31:01;;;;;;;;;;;1.50;99.90;;;0.59;94.82;92469.81;10535553;28;1896;-81
2020/12/28 17:36:03;;;;;;;;;;;1.60;99.90;;;0.63;94.78;92478.69;10518202;28;1990;-85
2020/12/28 17:41:05;;;;;;;;;;;1.60;99.90;;;0.66;94.53;92476.28;10524957;28;1977;-85
2020/12/28 17:46:07;;;;;;;;;;;1.70;99.90;;;0.76;94.12;92475.28;10505095;28;1986;-87
2020/12/28 17:51:09;;;;;;;;;;;1.70;99.90;;;0.76;94.02;92480.56;10535539;28;1470;-87
2020/12/28 17:56:11;;;;;;;;;;;1.70;99.90;;;0.76;93.66;92481.38;10515182;28;2271;-87
2020/12/28 18:01:16;;;;;;;;;;;1.70;99.90;;;0.82;92.98;92479.41;10510147;28;1940;-85
2020/12/28 18:06:18;;;;;;;;;;;2.70;99.90;;;0.82;92.95;92474.88;10507674;28;2359;-87
2020/12/28 18:11:20;;;;;;;;;;;2.70;99.90;;;0.84;92.43;92481.78;10522031;28;2032;-85
2020/12/28 18:16:22;;;;;;;;;;;1.80;99.90;;;0.85;92.67;92486.75;10517109;28;2056;-84
2020/12/28 18:21:23;;;;;;;;;;;1.90;99.90;;;0.87;92.27;92481.94;10509558;28;1900;-87
2020/12/28 18:26:25;;;;;;;;;;;1.80;99.90;;;0.85;92.56;92468.25;10522401;28;1982;-87
2020/12/28 18:31:29;;;;;;;;;;;1.80;99.90;;;0.82;92.32;92468.81;10501757;28;1977;-87
2020/12/28 18:36:31;;;;;;;;;;;3.10;99.90;;;0.79;92.17;92475.50;10522336;28;1846;-85
2020/12/28 18:41:33;;;;;;;;;;;1.80;99.90;;;0.76;92.40;92488.50;10505092;28;2081;-88
2020/12/28 18:46:34;;;;;;;;;;;1.80;99.90;;;0.72;92.16;92484.88;10524242;28;2275;-87
2020/12/28 18:51:36;;;;;;;;;;;1.80;99.90;;;0.69;91.71;92485.47;10502348;28;1751;-86
2020/12/28 18:56:38;;;;;;;;;;;1.80;99.90;;;0.63;91.99;92492.69;10510111;28;1986;-86
2020/12/28 19:01:40;;;;;;;;;;;1.70;99.90;;;0.59;92.24;92493.59;10520937;28;1983;-87
2020/12/28 19:06:41;;;;;;;;;;;1.70;99.90;;;0.63;91.92;92486.63;10516618;28;2021;-86
2020/12/28 19:11:43;;;;;;;;;;;1.70;99.90;;;0.58;91.29;92499.97;10505185;28;1704;-88
2020/12/28 19:16:45;;;;;;;;;;;1.60;99.90;;;0.59;91.14;92501.53;10518173;28;1921;-86
2020/12/28 19:21:47;;;;;;;;;;;1.70;99.90;;;0.54;91.31;92484.66;10532766;28;1910;-87
2020/12/28 19:26:48;;;;;;;;;;;1.70;99.90;;;0.54;91.19;92499.75;10534322;28;2029;-87
2020/12/28 19:31:51;;;;;;;;;;;1.50;99.90;;;0.51;91.06;92495.84;10513720;28;1882;-85
2020/12/28 19:36:53;;;;;;;;;;;1.60;99.90;;;0.48;91.15;92499.03;10504060;28;1684;-85
2020/12/28 19:41:55;;;;;;;;;;;2.40;99.90;;;0.40;90.97;92486.50;10512329;28;1913;-87
2020/12/28 19:46:57;;;;;;;;;;;2.10;99.90;;;0.45;91.00;92496.22;10533272;28;1787;-87
2020/12/28 19:51:58;;;;;;;;;;;3.00;99.90;;;0.43;90.84;92496.47;10534397;28;2008;-85
2020/12/28 19:57:00;;;;;;;;;;;1.50;99.90;;;0.36;90.83;92503.22;10535458;28;1918;-88
2020/12/28 20:02:02;;;;;;;;;;;2.50;99.90;;;0.31;90.42;92512.00;10512667;28;1883;-86
2020/12/28 20:07:04;;;;;;;;;;;1.40;99.90;;;0.29;90.33;92511.53;10520538;28;1837;-86
2020/12/28 20:12:05;;;;;;;;;;;2.60;99.90;;;0.24;90.51;92507.09;10536375;28;1899;-86
2020/12/28 20:17:07;;;;;;;;;;;1.40;99.90;;;0.27;90.08;92500.47;10527801;28;1903;-86
2020/12/28 20:22:09;;;;;;;;;;;1.40;99.90;;;0.22;90.62;92497.91;10524836;28;2012;-88
2020/12/28 20:27:11;;;;;;;;;;;1.40;99.90;;;0.22;90.19;92493.41;10509606;28;1864;-87
2020/12/28 20:32:12;;;;;;;;;;;1.60;99.90;;;0.19;90.53;92487.91;10504892;28;1900;-83
2020/12/28 20:37:15;;;;;;;;;;;1.30;99.90;;;0.08;90.70;92505.00;10486922;28;2050;-87
2020/12/28 20:42:16;;;;;;;;;;;2.20;99.90;;;-0.03;91.27;92480.59;10520504;28;1976;-85
2020/12/28 20:47:18;;;;;;;;;;;1.10;99.90;;;-0.23;91.01;92467.72;10509428;28;1710;-85
2020/12/28 20:52:20;;;;;;;;;;;1.50;99.90;;;-0.27;91.97;92476.19;10488453;28;2023;-88
2020/12/28 20:57:22;;;;;;;;;;;1.70;99.90;;;-0.37;92.38;92480.88;10499539;28;2049;-88
2020/12/28 21:02:23;;;;;;;;;;;0.80;99.90;;;-0.32;92.57;92486.84;10497279;28;2002;-86
2020/12/28 21:07:25;;;;;;;;;;;1.90;99.90;;;-0.38;92.79;92484.56;10501888;28;2280;-87
2020/12/28 21:12:27;;;;;;;;;;;1.20;99.90;;;-0.36;92.48;92488.50;10532111;28;1997;-87
2020/12/28 21:17:44;;;;;;;;;;;1.10;99.90;;;-0.45;93.07;92494.69;10524883;28;1974;-85
2020/12/28 21:22:50;;;;;;;;;;;0.70;99.90;;;-0.48;93.20;92503.19;10508233;28;1914;-87
2020/12/28 21:27:55;;;;;;;;;;;0.70;99.90;;;-0.72;92.81;92516.41;10518787;28;1968;-88
2020/12/28 21:32:56;;;;;;;;;;;0.50;99.90;;;-0.66;93.72;92510.78;10514807;28;2292;-87
2020/12/28 21:37:58;;;;;;;;;;;1.10;99.90;;;-0.72;93.69;92522.47;10487788;28;2233;-86
2020/12/28 21:43:00;;;;;;;;;;;1.40;99.90;;;-0.71;93.57;92523.25;10522082;28;1918;-86
2020/12/28 21:48:02;;;;;;;;;;;0.60;99.90;;;-0.89;94.04;92532.69;10517300;28;2216;-85
2020/12/28 21:53:04;;;;;;;;;;;0.40;99.90;;;-0.92;93.84;92538.53;10503857;28;2350;-88
2020/12/28 21:58:05;;;;;;;;;;;0.30;99.90;;;-0.93;94.25;92542.25;10516302;28;2465;-85
2020/12/28 22:03:11;;;;;;;;;;;0.20;99.90;;;-1.03;94.25;92553.69;10515633;28;1985;-87
2020/12/28 22:08:18;;;;;;;;;;;0.20;99.90;;;-1.02;94.56;92560.53;10523701;28;1852;-84
2020/12/28 22:13:23;;;;;;;;;;;0.10;99.90;;;-1.17;94.48;92553.56;10520771;28;2016;-86
2020/12/28 22:18:24;;;;;;;;;;;0.00;99.90;;;-1.19;94.81;92557.56;10555586;28;1844;-85
2020/12/28 22:23:26;;;;;;;;;;;0.00;99.90;;;-1.20;94.58;92574.44;10528293;28;1993;-85
2020/12/28 22:28:28;;;;;;;;;;;0.90;99.90;;;-1.41;93.81;92579.88;10521778;28;1954;-86
2020/12/28 22:33:30;;;;;;;;;;;-0.10;99.90;;;-1.45;94.26;92588.63;10515484;28;1859;-88
2020/12/28 22:38:32;;;;;;;;;;;-0.10;99.90;;;-1.27;94.57;92584.50;10535056;28;1867;-85
2020/12/28 22:43:34;;;;;;;;;;;0.50;99.90;;;-1.29;95.41;92591.91;10490111;28;2021;-84
2020/12/28 22:48:36;;;;;;;;;;;0.90;99.90;;;-1.50;94.52;92602.63;10512831;28;1950;-87
2020/12/28 22:53:38;;;;;;;;;;;0.50;99.90;;;-1.44;94.95;92600.75;10540091;28;1781;-84
2020/12/28 22:58:40;;;;;;;;;;;0.10;99.90;;;-1.53;94.68;92605.00;10540940;28;1685;-84
2020/12/28 23:03:42;;;;;;;;;;;-0.10;99.90;;;-1.21;95.62;92620.28;10568274;28;1943;-84
2020/12/28 23:08:45;;;;;;;;;;;0.20;99.90;;;-0.91;95.10;92629.75;10540033;28;1994;-84
2020/12/28 23:13:50;;;;;;;;;;;1.30;99.90;;;-0.73;94.78;92634.31;10518473;28;2154;-85
2020/12/28 23:18:52;;;;;;;;;;;0.20;99.90;;;-0.67;94.83;92646.38;10520169;28;2013;-84
2020/12/28 23:23:54;;;;;;;;;;;0.40;99.90;;;-0.52;94.77;92673.66;10512048;28;2076;-84
2020/12/28 23:28:56;;;;;;;;;;;1.20;99.90;;;-0.47;94.29;92665.69;10521772;28;1859;-84
2020/12/28 23:33:58;;;;;;;;;;;1.10;99.90;;;-0.31;92.74;92616.97;10512638;28;1960;-84
2020/12/28 23:39:01;;;;;;;;;;;1.30;99.90;;;-0.33;90.66;92614.59;10557083;28;1725;-82
2020/12/28 23:44:03;;;;;;;;;;;1.10;99.90;;;-0.30;90.32;92595.56;10546076;28;1886;-82
2020/12/28 23:49:05;;;;;;;;;;;1.00;99.90;;;-0.31;89.20;92590.56;10546239;28;1816;-84
2020/12/28 23:54:07;;;;;;;;;;;1.30;99.90;;;-0.41;89.96;92599.38;10543154;28;1954;-81
2020/12/28 23:59:09;;;;;;;;;;;1.60;99.90;;;-0.45;89.89;92611.56;10534819;28;1985;-83
